Time;durP1;ratioP1;P1;durP2;ratioP2;P2;SDS_P1;SDS_P2;PMS_P1;PMS_P2;Temp;Humidity;BMP_temperature;BMP_pressure;BME280_temperature;BME280_humidity;BME280_pressure;Samples;Min_cycle;Max_cycle;Signal;HPM_P1;HPM_P2
2022/03/27 00:01:26;;;;;;;28.17;14.70;;;;;;;13.32;34.76;98535.47;5111777;28;20415;-72
2022/03/27 00:03:51;;;;;;;30.10;15.30;;;;;;;13.20;34.68;98543.47;5120136;27;20192;-70
2022/03/27 00:06:17;;;;;;;24.87;14.30;;;;;;;13.14;34.85;98545.84;5120153;27;20653;-70
2022/03/27 00:08:42;;;;;;;32.87;15.03;;;;;;;13.13;35.21;98544.16;5121783;27;20181;-72
2022/03/27 00:11:27;;;;;;;23.20;13.80;;;;;;;13.11;35.21;98543.47;5112832;27;20185;-70
2022/03/27 00:13:54;;;;;;;35.27;15.97;;;;;;;13.01;35.37;98544.28;5116687;27;20208;-71
2022/03/27 00:16:20;;;;;;;38.10;17.17;;;;;;;12.86;35.45;98541.22;5114407;27;20427;-71
2022/03/27 00:18:45;;;;;;;29.03;15.60;;;;;;;12.81;35.56;98546.03;5115390;27;20421;-71
2022/03/27 00:21:11;;;;;;;34.10;16.00;;;;;;;12.80;35.47;98547.00;5116087;27;20260;-71
2022/03/27 00:23:36;;;;;;;38.70;15.00;;;;;;;12.74;36.15;98531.75;5129992;27;20627;-70
2022/03/27 00:26:03;;;;;;;30.67;15.40;;;;;;;12.73;35.64;98532.72;5125934;27;20189;-71
2022/03/27 00:28:32;;;;;;;28.50;15.37;;;;;;;12.74;35.35;98529.94;5111593;28;20203;-71
2022/03/27 00:31:09;;;;;;;26.87;14.70;;;;;;;12.64;36.01;98534.34;5110221;28;20420;-72
2022/03/27 00:33:35;;;;;;;26.43;15.67;;;;;;;12.45;36.68;98540.34;5113390;28;20454;-71
2022/03/27 00:36:03;;;;;;;29.70;15.70;;;;;;;12.53;36.63;98537.06;5116782;27;20431;-71
2022/03/27 00:38:29;;;;;;;30.73;16.10;;;;;;;12.53;36.69;98531.81;5117939;28;20444;-72
2022/03/27 00:40:55;;;;;;;32.80;17.13;;;;;;;12.53;36.47;98526.56;5119710;28;20442;-72
2022/03/27 00:43:21;;;;;;;31.13;16.43;;;;;;;12.56;36.61;98521.84;5119460;27;20482;-73
2022/03/27 00:45:47;;;;;;;39.80;17.10;;;;;;;12.52;36.29;98524.88;5111627;28;20632;-71
2022/03/27 00:48:13;;;;;;;37.03;16.47;;;;;;;12.56;36.48;98531.56;5111512;28;20461;-71
2022/03/27 00:50:40;;;;;;;36.07;16.20;;;;;;;12.54;36.33;98529.03;5110638;28;20581;-71
2022/03/27 00:53:05;;;;;;;30.10;15.57;;;;;;;12.49;36.59;98525.13;5111391;28;20446;-71
2022/03/27 00:55:31;;;;;;;36.43;16.43;;;;;;;12.48;36.91;98528.72;5119560;28;20423;-73
2022/03/27 00:57:58;;;;;;;33.53;16.50;;;;;;;12.46;36.72;98522.81;5117480;27;20181;-72
2022/03/27 01:00:38;;;;;;;39.23;16.53;;;;;;;12.53;36.85;98526.56;5111759;28;20419;-72
2022/03/27 01:03:11;;;;;;;29.83;17.00;;;;;;;12.49;36.81;98527.78;5116304;28;20435;-71
2022/03/27 01:05:43;;;;;;;34.27;16.50;;;;;;;12.42;36.41;98528.31;5113970;28;20426;-72
2022/03/27 01:08:10;;;;;;;32.73;17.07;;;;;;;12.38;36.96;98521.66;5115491;27;20418;-72
2022/03/27 01:10:37;;;;;;;37.73;16.20;;;;;;;12.32;37.00;98521.34;5113358;28;20418;-72
2022/03/27 01:13:05;;;;;;;29.83;16.60;;;;;;;12.28;37.32;98516.38;5117253;27;20444;-72
2022/03/27 01:15:31;;;;;;;29.20;16.77;;;;;;;12.24;37.54;98522.00;5117576;28;20514;-73
2022/03/27 01:17:57;;;;;;;34.80;16.20;;;;;;;12.23;37.06;98521.16;5095723;28;20434;-71
2022/03/27 01:20:30;;;;;;;29.80;16.07;;;;;;;12.21;37.52;98514.38;5107762;28;20935;-72
2022/03/27 01:22:55;;;;;;;30.97;16.30;;;;;;;12.27;37.17;98516.47;5113040;28;20197;-74
2022/03/27 01:25:21;;;;;;;26.47;15.27;;;;;;;12.31;37.02;98522.31;5123457;27;20429;-71
2022/03/27 01:27:46;;;;;;;29.23;15.37;;;;;;;12.25;37.09;98515.78;5114594;28;20188;-72
2022/03/27 01:30:12;;;;;;;37.40;15.93;;;;;;;12.19;37.50;98513.69;5115184;28;20224;-72
2022/03/27 01:32:37;;;;;;;32.20;16.33;;;;;;;11.95;37.58;98507.69;5122980;27;20620;-71
2022/03/27 01:35:03;;;;;;;38.03;16.80;;;;;;;11.83;37.76;98512.22;5121922;27;20200;-72
2022/03/27 01:37:29;;;;;;;34.23;15.83;;;;;;;11.88;38.01;98505.72;5126478;27;20170;-70
2022/03/27 01:39:54;;;;;;;30.50;15.93;;;;;;;11.93;38.15;98511.44;5117132;27;20815;-71
2022/03/27 01:42:20;;;;;;;30.87;15.33;;;;;;;11.96;37.97;98508.56;5123274;27;20201;-70
2022/03/27 01:44:45;;;;;;;32.07;15.10;;;;;;;11.99;37.84;98505.66;5122898;27;20165;-71
2022/03/27 01:47:11;;;;;;;29.43;15.30;;;;;;;11.98;37.81;98506.63;5115021;28;20177;-71
2022/03/27 01:49:36;;;;;;;30.40;16.23;;;;;;;11.96;37.96;98508.56;5114086;28;20689;-72
2022/03/27 01:52:02;;;;;;;28.17;15.60;;;;;;;11.89;38.00;98502.13;5114233;28;20201;-72
2022/03/27 01:54:28;;;;;;;27.17;15.77;;;;;;;11.83;38.39;98500.84;5096466;28;20574;-72
2022/03/27 01:56:53;;;;;;;34.30;16.47;;;;;;;11.74;38.24;98499.81;5114084;28;20426;-72
2022/03/27 01:59:21;;;;;;;27.23;14.77;;;;;;;11.72;38.36;98503.53;5122785;27;20529;-70
2022/03/27 02:01:46;;;;;;;27.83;15.40;;;;;;;11.68;38.45;98503.78;5114502;28;20181;-71
2022/03/27 02:04:12;;;;;;;32.03;16.13;;;;;;;11.64;38.58;98491.91;5112139;27;20486;-72
2022/03/27 02:06:37;;;;;;;29.20;14.17;;;;;;;11.65;38.68;98497.97;5113145;27;20185;-71
2022/03/27 02:09:03;;;;;;;27.47;15.10;;;;;;;11.66;38.62;98503.09;5113167;28;20287;-72
2022/03/27 02:11:29;;;;;;;28.60;15.23;;;;;;;11.68;38.66;98508.22;5122521;27;20208;-73
2022/03/27 02:13:54;;;;;;;39.63;15.67;;;;;;;11.60;39.02;98505.38;5122786;27;20543;-73
2022/03/27 02:16:20;;;;;;;32.23;14.90;;;;;;;11.50;39.16;98505.34;5114246;27;20680;-72
2022/03/27 02:18:45;;;;;;;25.60;15.47;;;;;;;11.53;38.86;98498.03;5114990;28;20174;-72
2022/03/27 02:21:11;;;;;;;34.77;15.27;;;;;;;11.50;39.04;98495.66;5123614;28;20182;-72
2022/03/27 02:23:37;;;;;;;25.70;14.70;;;;;;;11.51;38.93;98499.13;5122007;27;20212;-71
2022/03/27 02:26:02;;;;;;;24.27;14.23;;;;;;;11.59;39.08;98495.88;5113854;28;20187;-71
2022/03/27 02:28:28;;;;;;;27.33;15.20;;;;;;;11.60;39.15;98498.34;5123959;27;20414;-72
2022/03/27 02:30:54;;;;;;;23.43;14.30;;;;;;;11.57;38.97;98495.16;5119592;27;20257;-72
2022/03/27 02:33:19;;;;;;;25.37;15.40;;;;;;;11.48;39.17;98497.56;5128657;27;20563;-71
2022/03/27 02:35:45;;;;;;;26.63;15.20;;;;;;;11.36;38.96;98501.19;5122320;27;20177;-72
2022/03/27 02:38:10;;;;;;;39.37;15.50;;;;;;;11.30;39.38;98497.28;5113483;27;20201;-71
2022/03/27 02:40:37;;;;;;;38.20;14.00;;;;;;;11.27;39.58;98496.72;5112499;28;20216;-71
2022/03/27 02:43:03;;;;;;;27.53;14.50;;;;;;;11.26;39.55;98503.75;5110382;27;20205;-71
2022/03/27 02:45:29;;;;;;;24.27;15.53;;;;;;;11.26;39.39;98493.25;5115069;27;20965;-72
2022/03/27 02:47:55;;;;;;;32.60;14.23;;;;;;;11.27;39.72;98496.72;5113500;28;20451;-72
2022/03/27 02:50:21;;;;;;;32.67;14.90;;;;;;;11.24;39.33;98505.66;5131618;27;20208;-71
2022/03/27 02:52:47;;;;;;;24.93;14.37;;;;;;;11.27;39.68;98501.97;5121744;27;20193;-72
2022/03/27 02:55:12;;;;;;;37.40;14.80;;;;;;;11.30;39.37;98501.72;5125925;27;20504;-71
2022/03/27 02:57:38;;;;;;;32.00;16.00;;;;;;;11.20;39.88;98502.47;5121561;27;20234;-70
2022/03/27 03:00:08;;;;;;;36.00;15.63;;;;;;;11.13;39.51;98496.03;5112639;28;20174;-72
2022/03/27 03:02:34;;;;;;;31.60;16.10;;;;;;;11.04;39.80;98494.97;5095469;28;20665;-72
2022/03/27 03:05:00;;;;;;;29.97;16.10;;;;;;;11.02;39.92;98503.94;5120284;27;20410;-71
2022/03/27 03:07:25;;;;;;;30.07;15.60;;;;;;;10.97;40.28;98512.19;5097553;27;20984;-70
2022/03/27 03:09:51;;;;;;;31.50;14.33;;;;;;;10.95;39.79;98518.53;5099132;28;20169;-70
2022/03/27 03:12:17;;;;;;;27.53;14.77;;;;;;;11.02;40.26;98509.19;5111382;27;20201;-69
2022/03/27 03:14:43;;;;;;;33.17;14.60;;;;;;;11.00;40.18;98500.59;5108288;28;20477;-70
2022/03/27 03:17:08;;;;;;;26.80;14.20;;;;;;;11.01;40.41;98497.03;5112468;28;20745;-71
2022/03/27 03:19:34;;;;;;;25.17;14.30;;;;;;;11.03;40.23;98500.38;5129477;27;20187;-69
2022/03/27 03:22:00;;;;;;;28.27;14.87;;;;;;;11.06;40.16;98492.25;5112277;28;20636;-72
2022/03/27 03:24:27;;;;;;;30.00;14.73;;;;;;;11.01;40.00;98497.88;5122362;27;20181;-71
2022/03/27 03:26:53;;;;;;;25.03;15.80;;;;;;;11.02;40.19;98493.44;5119185;27;20185;-70
2022/03/27 03:29:19;;;;;;;33.43;15.30;;;;;;;10.88;40.01;98492.75;5129442;27;20422;-69
2022/03/27 03:31:45;;;;;;;32.40;15.27;;;;;;;10.85;40.79;98506.13;5098370;28;20423;-70
2022/03/27 03:34:10;;;;;;;26.77;14.90;;;;;;;10.76;40.55;98504.22;5107280;28;20447;-71
2022/03/27 03:36:36;;;;;;;26.87;15.50;;;;;;;10.77;40.77;98503.28;5128443;27;20196;-72
2022/03/27 03:39:01;;;;;;;32.47;14.73;;;;;;;10.66;40.92;98500.69;5112060;28;20288;-73
2022/03/27 03:41:27;;;;;;;30.30;14.97;;;;;;;10.68;40.85;98499.59;5114102;27;20185;-72
2022/03/27 03:43:52;;;;;;;29.57;14.60;;;;;;;10.71;40.76;98501.16;5119637;27;20200;-72
2022/03/27 03:46:18;;;;;;;32.60;17.50;;;;;;;10.70;40.82;98507.34;5120376;27;20264;-71
2022/03/27 03:48:44;;;;;;;36.17;15.83;;;;;;;10.72;40.86;98492.31;5106834;27;20235;-73
2022/03/27 03:51:09;;;;;;;28.93;14.90;;;;;;;10.78;41.10;98494.47;5115948;27;20173;-72
2022/03/27 03:53:35;;;;;;;29.63;15.40;;;;;;;10.80;40.85;98500.41;5119758;27;20458;-72
2022/03/27 03:56:00;;;;;;;34.83;15.37;;;;;;;10.74;40.92;98506.13;5112359;28;20184;-71
2022/03/27 03:58:26;;;;;;;29.27;17.10;;;;;;;10.66;40.92;98495.44;5093751;28;20600;-72
2022/03/27 04:00:51;;;;;;;30.40;15.10;;;;;;;10.49;41.01;98494.16;5111447;28;20264;-71
2022/03/27 04:03:17;;;;;;;29.13;16.20;;;;;;;10.52;41.42;98499.97;5111935;28;20696;-72
2022/03/27 04:05:42;;;;;;;26.73;15.20;;;;;;;10.47;41.08;98499.47;5120722;27;20188;-70
2022/03/27 04:08:08;;;;;;;25.73;14.50;;;;;;;10.47;41.32;98498.66;5112021;28;20189;-71
2022/03/27 04:10:33;;;;;;;37.93;15.37;;;;;;;10.48;41.34;98501.16;5111327;28;20205;-71
2022/03/27 04:12:59;;;;;;;25.20;15.00;;;;;;;10.45;41.36;98501.41;5112184;28;20294;-71
2022/03/27 04:15:24;;;;;;;28.03;15.57;;;;;;;10.46;40.95;98503.06;5101347;28;20300;-71
2022/03/27 04:17:51;;;;;;;28.93;14.63;;;;;;;10.45;41.33;98496.19;5114687;27;20177;-74
2022/03/27 04:20:17;;;;;;;27.17;13.50;;;;;;;10.47;41.15;98502.09;5116638;28;20548;-72
2022/03/27 04:22:43;;;;;;;36.07;15.80;;;;;;;10.44;41.43;98492.69;5112013;28;20457;-73
2022/03/27 04:25:10;;;;;;;27.97;14.70;;;;;;;10.44;41.44;98500.56;5111328;28;20419;-72
2022/03/27 04:27:35;;;;;;;26.10;13.07;;;;;;;10.51;41.34;98500.09;5115617;27;20437;-72
2022/03/27 04:30:03;;;;;;;27.43;14.07;;;;;;;10.51;41.33;98495.69;5116886;28;21005;-73
2022/03/27 04:32:29;;;;;;;25.67;15.10;;;;;;;10.50;41.19;98499.25;5110451;27;20684;-73
2022/03/27 04:34:54;;;;;;;31.40;16.40;;;;;;;10.52;41.50;98497.34;5109897;28;20468;-72
2022/03/27 04:37:20;;;;;;;27.70;14.60;;;;;;;10.42;41.14;98496.41;5114177;28;20176;-73
2022/03/27 04:39:45;;;;;;;25.70;14.87;;;;;;;10.29;41.43;98501.72;5111430;28;20169;-71
2022/03/27 04:42:11;;;;;;;35.67;15.60;;;;;;;10.25;41.58;98500.31;5101736;28;20232;-72
2022/03/27 04:44:36;;;;;;;39.07;15.43;;;;;;;10.22;41.73;98501.34;5113488;28;20211;-71
2022/03/27 04:47:02;;;;;;;35.00;14.23;;;;;;;10.20;41.84;98503.28;5117961;28;20203;-72
2022/03/27 04:49:28;;;;;;;34.00;15.40;;;;;;;10.20;41.86;98503.28;5121422;27;20207;-72
2022/03/27 04:51:53;;;;;;;30.80;15.70;;;;;;;10.22;41.83;98503.97;5116510;27;20799;-72
2022/03/27 04:54:19;;;;;;;28.83;15.27;;;;;;;10.25;41.56;98509.00;5096334;28;20205;-73
2022/03/27 04:56:44;;;;;;;24.30;13.70;;;;;;;10.26;41.85;98509.84;5117722;27;20639;-72
2022/03/27 04:59:10;;;;;;;28.83;13.40;;;;;;;10.17;41.47;98519.25;5102034;27;20208;-72
2022/03/27 05:01:36;;;;;;;25.90;14.20;;;;;;;10.20;41.86;98513.78;5109278;27;20195;-71
2022/03/27 05:04:02;;;;;;;24.93;14.40;;;;;;;10.17;42.10;98514.00;5129328;27;20197;-71
2022/03/27 05:06:29;;;;;;;24.70;13.20;;;;;;;10.15;41.94;98505.41;5116866;27;20338;-71
2022/03/27 05:08:58;;;;;;;37.40;14.47;;;;;;;10.09;41.99;98517.19;5111815;27;20419;-70
2022/03/27 05:11:30;;;;;;;24.60;13.00;;;;;;;9.93;42.20;98522.78;5115165;28;20434;-72
2022/03/27 05:13:56;;;;;;;29.47;14.50;;;;;;;9.95;42.28;98515.66;5112381;27;20459;-71
2022/03/27 05:16:22;;;;;;;31.73;14.77;;;;;;;9.95;41.89;98518.25;5103992;27;20518;-72
2022/03/27 05:18:48;;;;;;;28.50;14.10;;;;;;;9.96;42.34;98514.66;5127214;27;20229;-71
2022/03/27 05:21:14;;;;;;;28.63;15.00;;;;;;;9.98;42.41;98519.81;5118628;27;20421;-75
2022/03/27 05:23:40;;;;;;;29.50;15.20;;;;;;;9.94;42.51;98513.97;5096390;28;20497;-71
2022/03/27 05:26:05;;;;;;;36.30;14.70;;;;;;;9.86;42.61;98513.69;5114996;28;20683;-72
2022/03/27 05:28:32;;;;;;;27.83;14.03;;;;;;;9.87;42.45;98522.41;5114923;28;20265;-73
2022/03/27 05:30:57;;;;;;;25.87;13.30;;;;;;;9.84;42.86;98515.59;5120504;27;20176;-71
2022/03/27 05:33:23;;;;;;;31.33;14.50;;;;;;;9.83;42.81;98522.63;5125813;27;20438;-72
2022/03/27 05:35:49;;;;;;;37.73;14.10;;;;;;;9.89;42.79;98520.50;5114262;28;20260;-71
2022/03/27 05:38:14;;;;;;;30.07;15.27;;;;;;;9.93;42.68;98522.78;5114702;28;20196;-72
2022/03/27 05:40:40;;;;;;;26.03;15.50;;;;;;;10.02;42.68;98523.84;5113635;27;20173;-71
2022/03/27 05:43:07;;;;;;;29.30;13.60;;;;;;;10.09;42.53;98532.06;5114573;28;20196;-72
2022/03/27 05:45:33;;;;;;;24.20;14.40;;;;;;;10.15;42.41;98529.81;5114557;28;20469;-72
2022/03/27 05:47:58;;;;;;;30.07;14.00;;;;;;;10.20;42.28;98524.25;5121916;27;20454;-72
2022/03/27 05:50:25;;;;;;;24.27;13.93;;;;;;;10.29;42.68;98533.16;5114002;28;20685;-72
2022/03/27 05:52:51;;;;;;;28.63;13.47;;;;;;;10.30;42.45;98538.31;5122948;27;20786;-71
2022/03/27 05:55:17;;;;;;;31.70;14.37;;;;;;;10.30;42.43;98538.31;5113983;28;20829;-72
2022/03/27 05:57:43;;;;;;;31.50;14.20;;;;;;;10.29;42.79;98539.25;5122394;27;20412;-71
2022/03/27 06:00:12;;;;;;;28.13;15.30;;;;;;;10.31;42.43;98533.88;5113711;28;20260;-73
2022/03/27 06:02:38;;;;;;;33.43;16.50;;;;;;;10.35;42.80;98537.09;5114072;28;20486;-72
2022/03/27 06:05:04;;;;;;;33.97;16.13;;;;;;;10.46;42.61;98542.38;5114273;28;20434;-72
2022/03/27 06:07:29;;;;;;;26.40;15.10;;;;;;;10.56;42.52;98538.09;5113719;28;20419;-73
2022/03/27 06:09:55;;;;;;;27.33;16.13;;;;;;;10.71;42.25;98540.50;5113602;28;20953;-71
2022/03/27 06:12:21;;;;;;;34.70;16.50;;;;;;;10.82;42.31;98540.47;5113948;28;20250;-72
2022/03/27 06:14:48;;;;;;;35.47;16.50;;;;;;;10.99;41.56;98543.53;5113091;28;20974;-72
2022/03/27 06:17:13;;;;;;;31.77;15.53;;;;;;;11.17;41.44;98536.81;5122980;27;20187;-70
2022/03/27 06:19:39;;;;;;;31.73;16.23;;;;;;;11.34;41.21;98537.25;5120242;27;20422;-70
2022/03/27 06:22:04;;;;;;;24.90;14.53;;;;;;;11.41;41.29;98535.78;5113689;28;20333;-71
2022/03/27 06:24:30;;;;;;;30.47;14.73;;;;;;;11.57;41.22;98539.78;5115430;27;20208;-71
2022/03/27 06:26:55;;;;;;;29.00;15.70;;;;;;;11.74;40.96;98536.59;5113119;28;20181;-70
2022/03/27 06:29:21;;;;;;;28.03;15.60;;;;;;;11.97;40.91;98539.13;5113349;28;20173;-71
2022/03/27 06:31:50;;;;;;;33.70;15.93;;;;;;;12.15;40.22;98534.13;5112883;28;20609;-71
2022/03/27 06:34:16;;;;;;;34.63;15.47;;;;;;;12.48;39.81;98536.63;5094610;28;20447;-71
2022/03/27 06:36:42;;;;;;;32.90;16.07;;;;;;;12.66;39.89;98531.59;5114325;28;20782;-72
2022/03/27 06:39:07;;;;;;;39.73;24.30;;;;;;;12.79;39.62;98532.16;5113992;28;20193;-72
2022/03/27 06:41:33;;;;;;;62.37;38.43;;;;;;;13.00;39.23;98533.91;5114425;28;20273;-72
2022/03/27 06:43:58;;;;;;;41.43;25.10;;;;;;;13.16;39.32;98536.84;5114301;28;20298;-72
2022/03/27 06:46:24;;;;;;;38.90;26.07;;;;;;;13.29;39.55;98538.38;5115731;27;20181;-72
2022/03/27 06:48:49;;;;;;;39.30;24.63;;;;;;;13.57;38.65;98534.13;5134860;27;20176;-72
2022/03/27 06:51:15;;;;;;;41.00;20.50;;;;;;;13.73;38.46;98530.94;5117667;27;20256;-71
2022/03/27 06:53:42;;;;;;;34.03;20.30;;;;;;;13.94;38.26;98524.66;5105897;28;20197;-71
2022/03/27 06:56:07;;;;;;;29.83;18.73;;;;;;;14.16;37.34;98535.84;5113698;28;20505;-72
2022/03/27 06:58:33;;;;;;;31.43;17.30;;;;;;;14.37;37.40;98540.91;5113042;28;20510;-72
2022/03/27 07:03:43;;;;;;;32.67;17.67;;;;;;;14.66;36.08;98537.34;5104653;28;20714;-72
2022/03/27 07:06:09;;;;;;;29.07;17.10;;;;;;;14.84;35.84;98535.63;5112783;28;20427;-72
2022/03/27 07:08:35;;;;;;;32.97;19.77;;;;;;;15.05;35.67;98531.88;5113098;28;20666;-71
2022/03/27 07:11:00;;;;;;;30.43;17.57;;;;;;;15.26;35.18;98538.69;5112578;28;20507;-71
2022/03/27 07:13:26;;;;;;;34.13;18.47;;;;;;;15.42;35.05;98528.28;5112918;28;20571;-71
2022/03/27 07:15:52;;;;;;;31.33;19.30;;;;;;;15.60;35.12;98530.09;5113600;27;20187;-72
2022/03/27 07:18:17;;;;;;;36.43;18.00;;;;;;;15.78;34.67;98530.09;5121881;27;20418;-71
2022/03/27 07:20:45;;;;;;;27.37;15.93;;;;;;;16.00;34.54;98535.88;5112269;28;20323;-72
2022/03/27 07:23:12;;;;;;;31.63;16.90;;;;;;;16.16;33.63;98535.16;5112516;28;20197;-73
2022/03/27 07:25:40;;;;;;;33.70;17.23;;;;;;;16.34;33.60;98533.31;5121178;27;20399;-71
2022/03/27 07:28:07;;;;;;;37.40;17.80;;;;;;;16.54;33.41;98533.06;5113365;28;20987;-70
2022/03/27 07:30:32;;;;;;;32.80;17.70;;;;;;;16.72;32.78;98539.09;5120971;27;20417;-72
2022/03/27 07:32:58;;;;;;;29.67;16.57;;;;;;;16.92;32.64;98533.53;5113288;28;20438;-72
2022/03/27 07:35:26;;;;;;;34.23;15.30;;;;;;;17.12;32.78;98541.25;5112421;28;20804;-71
2022/03/27 07:37:52;;;;;;;35.17;16.40;;;;;;;17.34;32.15;98535.34;5117197;27;20181;-72
2022/03/27 07:40:19;;;;;;;33.07;16.67;;;;;;;17.54;31.90;98532.38;5115107;27;20419;-71
2022/03/27 07:42:50;;;;;;;33.50;15.43;;;;;;;17.79;31.52;98535.88;5111930;28;20431;-69
2022/03/27 07:45:18;;;;;;;28.47;15.03;;;;;;;17.98;31.03;98531.22;5094344;28;20884;-71
2022/03/27 07:47:44;;;;;;;32.73;15.57;;;;;;;18.11;30.48;98542.16;5110412;27;20431;-72
2022/03/27 07:50:10;;;;;;;27.10;15.40;;;;;;;18.23;30.52;98539.16;5111928;28;20411;-73
2022/03/27 07:52:36;;;;;;;27.07;15.07;;;;;;;18.24;29.75;98544.31;5111976;28;20208;-72
2022/03/27 07:55:03;;;;;;;30.47;15.77;;;;;;;18.31;29.43;98546.25;5111913;28;20455;-71
2022/03/27 07:57:28;;;;;;;27.10;14.07;;;;;;;18.35;29.42;98542.28;5111723;28;20546;-71
2022/03/27 07:59:54;;;;;;;31.63;16.33;;;;;;;18.23;29.20;98545.28;5111616;28;20423;-73
2022/03/27 08:02:21;;;;;;;24.90;15.67;;;;;;;18.32;29.23;98551.41;5111178;28;20813;-71
2022/03/27 08:04:47;;;;;;;34.70;15.73;;;;;;;18.34;29.16;98552.06;5120056;27;20419;-74
2022/03/27 08:07:13;;;;;;;31.90;15.37;;;;;;;18.44;29.25;98556.38;5094110;28;20450;-72
2022/03/27 08:09:39;;;;;;;34.03;15.77;;;;;;;18.41;28.69;98558.34;5111161;28;20183;-73
2022/03/27 08:12:07;;;;;;;33.90;17.03;;;;;;;18.56;29.06;98547.84;5095191;28;20448;-73
2022/03/27 08:14:33;;;;;;;32.23;16.83;;;;;;;18.71;29.22;98557.75;5109994;28;20219;-73
2022/03/27 08:16:59;;;;;;;25.17;16.33;;;;;;;18.84;28.67;98551.88;5112592;27;20434;-72
2022/03/27 08:19:24;;;;;;;26.20;16.07;;;;;;;18.99;28.58;98554.69;5110488;28;20419;-73
2022/03/27 08:21:50;;;;;;;36.40;18.00;;;;;;;19.14;28.50;98549.47;5115750;27;20227;-73
2022/03/27 08:24:15;;;;;;;35.23;18.37;;;;;;;19.21;28.57;98552.25;5114625;27;20173;-73
2022/03/27 08:26:56;;;;;;;36.33;16.33;;;;;;;19.24;28.28;98557.22;5103007;28;20176;-73
2022/03/27 08:29:29;;;;;;;27.97;15.60;;;;;;;19.39;28.31;98555.47;5111037;28;20184;-72
2022/03/27 08:31:55;;;;;;;27.40;15.77;;;;;;;19.49;28.04;98548.09;5111423;28;20430;-72
2022/03/27 08:34:23;;;;;;;27.73;16.33;;;;;;;19.65;27.49;98543.66;5128201;27;20456;-73
2022/03/27 08:36:49;;;;;;;30.77;15.37;;;;;;;19.87;27.89;98546.50;5111346;28;20958;-73
2022/03/27 08:39:15;;;;;;;23.63;14.70;;;;;;;20.10;28.07;98547.28;5110308;28;20431;-73
2022/03/27 08:41:44;;;;;;;25.63;14.33;;;;;;;20.16;27.07;98547.56;5111182;28;20414;-73
2022/03/27 08:44:11;;;;;;;25.87;14.50;;;;;;;20.01;26.67;98548.38;5111223;28;20173;-72
2022/03/27 08:46:36;;;;;;;26.17;15.03;;;;;;;20.04;27.05;98548.00;5112302;28;21014;-72
2022/03/27 08:49:11;;;;;;;24.20;14.23;;;;;;;20.30;27.28;98556.56;5111032;28;20510;-72
2022/03/27 08:51:47;;;;;;;23.33;14.27;;;;;;;20.40;26.99;98547.31;5119714;28;20225;-72
2022/03/27 08:54:43;;;;;;;21.97;13.60;;;;;;;20.75;27.09;98546.78;5093645;28;20986;-72
2022/03/27 08:57:36;;;;;;;20.87;13.57;;;;;;;20.89;26.04;98550.44;5109736;28;20822;-72
2022/03/27 09:00:02;;;;;;;26.60;13.80;;;;;;;21.01;26.31;98546.28;5105298;28;20426;-72
2022/03/27 09:02:28;;;;;;;26.70;13.50;;;;;;;21.23;25.92;98545.50;5110951;28;20450;-73
2022/03/27 09:04:55;;;;;;;23.57;13.70;;;;;;;21.39;25.20;98544.44;5096535;28;21014;-71
2022/03/27 09:07:24;;;;;;;23.87;13.50;;;;;;;21.52;25.01;98549.91;5108161;28;20201;-73
2022/03/27 09:09:50;;;;;;;22.97;13.23;;;;;;;21.72;25.07;98549.28;5110728;28;20419;-72
2022/03/27 09:12:18;;;;;;;23.10;13.57;;;;;;;21.82;24.65;98554.31;5092547;28;20474;-72
2022/03/27 09:14:44;;;;;;;23.33;14.70;;;;;;;21.89;24.95;98549.84;5118595;28;21012;-70
2022/03/27 09:17:09;;;;;;;25.07;15.10;;;;;;;21.99;24.57;98550.31;5101016;28;20432;-73
2022/03/27 09:19:40;;;;;;;24.50;14.53;;;;;;;22.08;24.61;98556.34;5109769;28;20185;-71
2022/03/27 09:22:15;;;;;;;23.60;15.10;;;;;;;22.24;24.55;98557.91;5111220;28;20191;-73
2022/03/27 09:24:45;;;;;;;19.70;14.30;;;;;;;22.38;24.32;98558.81;5089622;28;20976;-72
2022/03/27 09:27:10;;;;;;;29.10;14.80;;;;;;;22.49;24.24;98560.97;5072459;28;20506;-73
2022/03/27 09:30:09;;;;;;;27.50;14.63;;;;;;;22.62;24.18;98556.72;5092301;28;20518;-72
2022/03/27 09:32:39;;;;;;;27.50;14.90;;;;;;;22.86;24.22;98550.88;5110942;28;20251;-73
2022/03/27 09:35:06;;;;;;;21.93;14.87;;;;;;;22.99;23.81;98559.97;5119172;28;20482;-74
2022/03/27 09:37:33;;;;;;;22.83;14.63;;;;;;;23.16;23.87;98550.59;5110692;28;20937;-73
2022/03/27 09:39:59;;;;;;;21.40;14.13;;;;;;;23.35;23.43;98542.84;5095818;28;20414;-72
2022/03/27 09:42:25;;;;;;;26.73;14.00;;;;;;;23.40;23.24;98540.38;5110074;28;20431;-73
2022/03/27 09:45:16;;;;;;;23.33;15.27;;;;;;;23.55;22.57;98539.38;5114447;28;20712;-73
2022/03/27 09:47:43;;;;;;;23.53;14.30;;;;;;;23.63;23.05;98540.00;5116381;27;20177;-74
2022/03/27 09:50:10;;;;;;;29.93;15.23;;;;;;;23.80;22.87;98538.78;5116616;28;20427;-73
2022/03/27 09:52:36;;;;;;;23.10;13.63;;;;;;;24.00;23.16;98536.94;5113883;27;21024;-74
2022/03/27 09:55:07;;;;;;;17.60;13.00;;;;;;;23.98;22.81;98530.97;5116009;28;20460;-72
2022/03/27 09:57:37;;;;;;;25.70;13.30;;;;;;;24.28;22.63;98525.19;5129779;27;20494;-71
2022/03/27 10:00:15;;;;;;;23.40;14.07;;;;;;;24.53;22.71;98527.19;5126735;27;20422;-73
2022/03/27 10:02:41;;;;;;;26.83;14.70;;;;;;;24.61;22.23;98526.94;5114753;27;20427;-73
2022/03/27 10:05:14;;;;;;;21.40;13.67;;;;;;;24.73;21.87;98519.09;5122972;27;20418;-71
2022/03/27 10:07:52;;;;;;;29.53;14.70;;;;;;;24.90;21.69;98519.44;5113557;28;20935;-72
2022/03/27 10:10:19;;;;;;;26.27;14.70;;;;;;;25.00;21.21;98522.47;5113389;28;20983;-71
2022/03/27 10:12:48;;;;;;;22.93;14.30;;;;;;;24.97;21.69;98520.22;5117388;27;20973;-73
2022/03/27 10:15:19;;;;;;;24.47;15.27;;;;;;;25.15;20.92;98516.00;5117853;27;20454;-73
2022/03/27 10:18:00;;;;;;;27.80;15.27;;;;;;;25.21;21.36;98512.44;5130518;27;20420;-72
2022/03/27 10:20:32;;;;;;;21.87;13.60;;;;;;;25.18;21.50;98512.91;5115167;27;20430;-73
2022/03/27 10:23:09;;;;;;;22.37;13.93;;;;;;;25.23;21.32;98505.03;5098040;28;20435;-74
2022/03/27 10:25:44;;;;;;;23.30;13.70;;;;;;;25.28;21.45;98507.03;5112670;28;20552;-73
2022/03/27 10:28:11;;;;;;;24.20;13.90;;;;;;;25.35;21.18;98504.31;5111059;27;20418;-73
2022/03/27 10:30:38;;;;;;;26.90;13.60;;;;;;;25.34;21.16;98503.50;5087698;27;20939;-73
2022/03/27 10:33:04;;;;;;;24.33;13.93;;;;;;;25.38;21.22;98495.84;5097186;28;20442;-73
2022/03/27 10:35:33;;;;;;;18.37;12.87;;;;;;;25.34;21.25;98483.91;5093886;28;20491;-74
2022/03/27 10:38:38;;;;;;;22.87;13.43;;;;;;;25.21;20.93;98491.00;5122047;27;20921;-73
2022/03/27 10:41:09;;;;;;;36.63;13.97;;;;;;;25.29;21.31;98493.44;5108158;28;20403;-73
2022/03/27 10:43:51;;;;;;;27.13;14.17;;;;;;;24.94;21.25;98496.53;5111944;27;20439;-73
2022/03/27 10:46:23;;;;;;;25.63;13.87;;;;;;;25.07;21.22;98492.94;5101687;27;20467;-74
2022/03/27 10:48:50;;;;;;;26.90;13.67;;;;;;;25.15;21.17;98486.50;5099079;28;20733;-72
2022/03/27 10:51:24;;;;;;;25.70;13.53;;;;;;;25.04;21.68;98489.88;5110095;28;20415;-73
2022/03/27 10:54:19;;;;;;;26.50;14.47;;;;;;;25.27;21.70;98490.16;5114235;27;20541;-72
2022/03/27 10:56:50;;;;;;;29.73;13.77;;;;;;;25.33;21.20;98487.66;5109381;28;20774;-73
2022/03/27 10:59:24;;;;;;;19.60;13.00;;;;;;;25.55;21.01;98490.78;5112246;28;20494;-72
2022/03/27 11:01:55;;;;;;;29.93;13.33;;;;;;;25.81;20.63;98489.78;5112706;28;20415;-73
2022/03/27 11:04:44;;;;;;;20.23;13.43;;;;;;;25.73;20.72;98482.81;5112515;28;20417;-72
2022/03/27 11:07:15;;;;;;;26.57;14.50;;;;;;;25.86;20.80;98481.88;5113001;28;20931;-73
2022/03/27 11:09:44;;;;;;;22.30;13.53;;;;;;;25.95;20.60;98485.09;5112390;28;20415;-73
2022/03/27 11:12:25;;;;;;;25.83;14.70;;;;;;;25.99;20.78;98480.94;5112962;28;20497;-71
2022/03/27 11:15:07;;;;;;;31.37;13.60;;;;;;;25.68;20.39;98477.28;5105390;28;20459;-73
2022/03/27 11:17:37;;;;;;;21.40;13.87;;;;;;;25.84;21.07;98470.50;5122055;27;20433;-72
2022/03/27 11:20:05;;;;;;;23.90;12.43;;;;;;;26.10;20.62;98476.69;5111794;28;20423;-72
2022/03/27 11:22:53;;;;;;;21.20;13.90;;;;;;;26.47;20.77;98468.66;5112765;28;20430;-73